createdAt,value
2022-07-29T00:00:19.961Z,22.08
2022-07-29T00:03:22.674Z,21.99
2022-07-29T00:06:25.356Z,22.06
2022-07-29T00:09:28.308Z,21.98
2022-07-29T00:12:30.694Z,21.93
2022-07-29T00:15:34.995Z,21.91
2022-07-29T00:18:37.400Z,21.83
2022-07-29T00:21:40.212Z,21.80
2022-07-29T00:24:42.542Z,21.75
2022-07-29T00:27:46.736Z,21.72
2022-07-29T00:30:49.067Z,21.71
2022-07-29T00:33:51.683Z,21.68
2022-07-29T00:36:53.994Z,21.70
2022-07-29T00:39:56.602Z,21.71
2022-07-29T00:42:58.938Z,21.75
2022-07-29T00:46:02.562Z,21.86
2022-07-29T00:49:04.998Z,21.83
2022-07-29T00:52:08.651Z,21.79
2022-07-29T00:55:12.675Z,21.75
2022-07-29T00:58:16.055Z,21.72
2022-07-29T01:01:18.389Z,21.68
2022-07-29T01:04:21.537Z,21.71
2022-07-29T01:07:25.318Z,21.74
2022-07-29T01:10:28.488Z,21.72
2022-07-29T01:13:31.146Z,21.71
2022-07-29T01:16:37.467Z,21.88
2022-07-29T01:20:02.420Z,21.75
2022-07-29T01:23:08.152Z,21.72
2022-07-29T01:26:20.500Z,21.61
2022-07-29T01:29:30.999Z,21.55
2022-07-29T01:32:42.007Z,21.48
2022-07-29T01:35:45.504Z,21.44
2022-07-29T01:38:55.366Z,21.41
2022-07-29T01:42:06.988Z,21.33
2022-07-29T01:45:29.161Z,21.29
2022-07-29T01:48:35.929Z,21.23
2022-07-29T01:51:48.043Z,21.23
2022-07-29T01:54:53.363Z,21.19
2022-07-29T01:57:58.082Z,21.16
2022-07-29T02:01:00.911Z,21.15
2022-07-29T02:04:04.617Z,21.09
2022-07-29T02:07:08.053Z,21.07
2022-07-29T02:10:11.703Z,21.05
2022-07-29T02:13:14.564Z,20.99
2022-07-29T02:16:18.741Z,20.96
2022-07-29T02:19:23.382Z,20.92
2022-07-29T02:22:27.688Z,20.91
2022-07-29T02:25:38.066Z,20.92
2022-07-29T02:28:41.303Z,20.91
2022-07-29T02:31:45.344Z,20.89
2022-07-29T02:34:48.632Z,20.84
2022-07-29T02:38:11.570Z,20.82
2022-07-29T02:41:17.636Z,20.82
2022-07-29T02:44:22.411Z,20.79
2022-07-29T02:47:41.481Z,20.72
2022-07-29T02:50:52.999Z,20.66
2022-07-29T02:53:57.645Z,20.60
2022-07-29T02:57:01.780Z,20.52
2022-07-29T03:00:09.126Z,20.47
2022-07-29T03:03:15.983Z,20.41
2022-07-29T03:06:28.252Z,20.42
2022-07-29T03:09:42.733Z,20.38
2022-07-29T03:12:45.808Z,20.39
2022-07-29T03:15:48.530Z,20.35
2022-07-29T03:18:51.735Z,20.34
2022-07-29T03:21:56.818Z,20.35
2022-07-29T03:25:08.071Z,20.34
2022-07-29T03:28:10.514Z,20.34
2022-07-29T03:31:13.177Z,20.34
2022-07-29T03:34:15.942Z,20.34
2022-07-29T03:37:18.829Z,20.35
2022-07-29T03:40:23.292Z,20.37
2022-07-29T03:43:30.129Z,20.37
2022-07-29T03:46:33.961Z,20.45
2022-07-29T03:49:37.571Z,20.48
2022-07-29T03:52:39.962Z,20.49
2022-07-29T03:55:43.981Z,20.53
2022-07-29T03:58:46.719Z,20.57
2022-07-29T04:01:49.941Z,20.61
2022-07-29T04:04:52.742Z,20.65
2022-07-29T04:07:55.813Z,20.67
2022-07-29T04:11:01.137Z,20.66
2022-07-29T04:14:03.439Z,20.76
2022-07-29T04:17:06.032Z,20.78
2022-07-29T04:20:08.603Z,20.84
2022-07-29T04:23:11.148Z,20.92
2022-07-29T04:26:13.493Z,21.09
2022-07-29T04:29:16.189Z,21.04
2022-07-29T04:32:18.575Z,21.05
2022-07-29T04:35:21.244Z,21.09
2022-07-29T04:38:23.535Z,21.19
2022-07-29T04:41:33.163Z,21.30
2022-07-29T04:44:37.200Z,21.51
2022-07-29T04:47:42.306Z,21.66
2022-07-29T04:50:45.284Z,21.79
2022-07-29T04:53:47.812Z,21.90
2022-07-29T04:56:50.180Z,22.01
2022-07-29T04:59:52.749Z,22.12
2022-07-29T05:02:55.150Z,22.27
2022-07-29T05:05:57.853Z,22.49
2022-07-29T05:09:00.119Z,22.74
2022-07-29T05:12:02.863Z,23.25
2022-07-29T05:15:05.409Z,23.65
2022-07-29T05:18:08.114Z,23.83
2022-07-29T05:21:10.512Z,23.93
2022-07-29T05:24:13.270Z,23.91
2022-07-29T05:27:15.855Z,24.03
2022-07-29T05:30:18.815Z,24.02
2022-07-29T05:33:35.439Z,24.04
2022-07-29T05:36:39.375Z,24.06
2022-07-29T05:39:48.553Z,24.25
2022-07-29T05:42:51.950Z,25.02
2022-07-29T05:45:54.396Z,26.02
2022-07-29T05:48:57.280Z,26.31
2022-07-29T05:51:59.620Z,26.15
2022-07-29T05:55:05.264Z,26.44
2022-07-29T05:58:07.936Z,27.86
2022-07-29T06:01:10.544Z,28.69
2022-07-29T06:04:13.358Z,27.77
2022-07-29T06:07:17.139Z,27.36
2022-07-29T06:10:20.174Z,27.35
2022-07-29T06:13:26.231Z,26.99
2022-07-29T06:16:30.135Z,26.73
2022-07-29T06:19:34.826Z,26.58
2022-07-29T06:22:37.473Z,26.41
2022-07-29T06:25:40.897Z,26.28
2022-07-29T06:28:43.532Z,26.26
2022-07-29T06:31:45.869Z,26.32
2022-07-29T06:34:48.948Z,26.41
2022-07-29T06:37:51.942Z,26.67
2022-07-29T06:41:00.979Z,26.95
2022-07-29T06:44:03.682Z,27.08
2022-07-29T06:47:06.757Z,27.36
2022-07-29T06:50:12.760Z,27.51
2022-07-29T06:53:15.367Z,27.67
2022-07-29T06:56:17.760Z,28.09
2022-07-29T06:59:26.232Z,28.81
2022-07-29T07:02:33.284Z,29.90
2022-07-29T07:05:35.825Z,34.32
2022-07-29T07:08:38.161Z,37.33
2022-07-29T07:11:40.896Z,39.90
2022-07-29T07:14:43.397Z,40.97
2022-07-29T07:17:46.021Z,39.43
2022-07-29T07:20:48.640Z,40.69
2022-07-29T07:23:51.295Z,42.09
2022-07-29T07:26:53.726Z,43.88
2022-07-29T07:29:56.356Z,44.73
2022-07-29T07:32:58.713Z,44.62
2022-07-29T07:36:01.262Z,45.14
2022-07-29T07:39:04.482Z,45.99
2022-07-29T07:42:07.157Z,46.44
2022-07-29T07:45:15.909Z,45.76
2022-07-29T07:48:19.496Z,44.34
2022-07-29T07:51:21.781Z,44.76
2022-07-29T07:54:24.674Z,46.84
2022-07-29T07:57:26.947Z,47.68
2022-07-29T08:00:29.547Z,47.45
2022-07-29T08:03:32.159Z,47.39
2022-07-29T08:06:35.886Z,47.71
2022-07-29T08:09:38.491Z,49.14
2022-07-29T08:12:40.835Z,49.06
2022-07-29T08:15:44.146Z,48.55
2022-07-29T08:18:47.084Z,49.10
2022-07-29T08:21:50.236Z,49.28
2022-07-29T08:24:56.996Z,48.60
2022-07-29T08:27:59.988Z,48.29
2022-07-29T08:31:02.274Z,49.06
2022-07-29T08:34:05.335Z,47.43
2022-07-29T08:37:07.626Z,48.54
2022-07-29T08:40:10.617Z,47.84
2022-07-29T08:43:13.585Z,48.40
2022-07-29T08:46:18.117Z,48.50
2022-07-29T08:49:20.918Z,48.35
2022-07-29T08:52:26.061Z,47.48
2022-07-29T08:55:28.835Z,47.71
2022-07-29T08:58:37.015Z,48.37
2022-07-29T09:01:42.748Z,48.36
2022-07-29T09:04:47.907Z,49.61
2022-07-29T09:07:51.063Z,48.28
2022-07-29T09:10:54.427Z,47.31
2022-07-29T09:13:56.744Z,47.85
2022-07-29T09:16:59.647Z,49.06
2022-07-29T09:20:09.881Z,46.92
2022-07-29T09:23:12.780Z,47.06
2022-07-29T09:26:29.163Z,45.17
2022-07-29T09:29:36.154Z,41.90
2022-07-29T09:32:57.636Z,39.79
2022-07-29T09:36:01.935Z,37.83
2022-07-29T09:39:04.805Z,37.36
2022-07-29T09:42:07.730Z,36.85
2022-07-29T09:45:11.407Z,36.79
2022-07-29T09:48:15.234Z,36.66
2022-07-29T09:51:25.480Z,36.03
2022-07-29T09:54:35.481Z,36.61
2022-07-29T09:57:37.856Z,36.24
2022-07-29T10:00:43.333Z,36.34
2022-07-29T10:03:53.182Z,36.46
2022-07-29T10:07:04.347Z,36.25
2022-07-29T10:10:08.463Z,36.04
2022-07-29T10:13:16.080Z,36.12
2022-07-29T10:16:19.316Z,36.66
2022-07-29T10:19:21.780Z,36.76
2022-07-29T10:22:51.466Z,36.73
2022-07-29T10:25:46.996Z,37.08
2022-07-29T10:28:49.648Z,36.99
2022-07-29T10:32:10.985Z,36.90
2022-07-29T10:35:19.024Z,36.97
2022-07-29T10:38:24.749Z,36.60
2022-07-29T10:41:54.173Z,36.90
2022-07-29T10:44:56.740Z,36.85
2022-07-29T10:48:07.968Z,36.48
2022-07-29T10:51:10.733Z,36.47
2022-07-29T10:54:16.425Z,37.01
2022-07-29T10:57:20.277Z,37.41
2022-07-29T11:00:28.018Z,37.27
2022-07-29T11:03:50.440Z,36.25
2022-07-29T11:06:59.667Z,36.05
2022-07-29T11:10:15.353Z,35.58
2022-07-29T11:13:41.360Z,34.88
2022-07-29T11:17:05.987Z,34.66
2022-07-29T11:20:27.168Z,34.37
2022-07-29T11:23:33.388Z,34.60
2022-07-29T11:26:37.077Z,35.31
2022-07-29T11:29:43.177Z,34.92
2022-07-29T11:32:48.845Z,35.04
2022-07-29T11:36:17.812Z,35.20
2022-07-29T11:39:36.273Z,35.91
2022-07-29T11:42:41.999Z,35.35
2022-07-29T11:45:48.047Z,35.18
2022-07-29T11:48:50.509Z,35.73
2022-07-29T11:51:58.881Z,36.03
2022-07-29T11:55:09.599Z,36.21
2022-07-29T11:58:13.159Z,35.98
2022-07-29T12:01:18.145Z,36.85
2022-07-29T12:04:20.859Z,37.37
2022-07-29T12:07:34.920Z,36.59
2022-07-29T12:10:38.192Z,36.98
2022-07-29T12:13:40.771Z,37.28
2022-07-29T12:16:43.414Z,37.22
2022-07-29T12:19:46.472Z,36.92
2022-07-29T12:22:50.281Z,37.16
2022-07-29T12:25:53.116Z,37.17
2022-07-29T12:28:56.820Z,37.17
2022-07-29T12:31:59.729Z,36.88
2022-07-29T12:35:06.562Z,36.86
2022-07-29T12:38:10.552Z,37.12
2022-07-29T12:41:13.932Z,37.16
2022-07-29T12:44:16.399Z,36.63
2022-07-29T12:47:19.646Z,36.56
2022-07-29T12:50:26.284Z,36.50
2022-07-29T12:53:29.394Z,36.38
2022-07-29T12:56:47.069Z,36.43
2022-07-29T13:00:11.141Z,36.75
2022-07-29T13:03:13.744Z,36.44
2022-07-29T13:06:35.390Z,36.31
2022-07-29T13:09:46.851Z,36.46
2022-07-29T13:13:02.129Z,36.29
2022-07-29T13:16:08.678Z,36.34
2022-07-29T13:19:12.719Z,36.13
2022-07-29T13:22:16.335Z,35.57
2022-07-29T13:25:33.146Z,35.64
2022-07-29T13:28:35.684Z,35.94
2022-07-29T13:31:38.470Z,35.84
2022-07-29T13:34:41.736Z,35.96
2022-07-29T13:37:44.376Z,36.12
2022-07-29T13:40:46.779Z,36.16
2022-07-29T13:43:50.082Z,36.13
2022-07-29T13:46:52.635Z,36.02
2022-07-29T13:49:56.135Z,35.90
2022-07-29T13:53:01.329Z,36.13
2022-07-29T13:56:06.113Z,35.39
2022-07-29T13:59:08.748Z,35.05
2022-07-29T14:02:11.864Z,34.54
2022-07-29T14:05:18.635Z,34.92
2022-07-29T14:08:21.048Z,35.12
2022-07-29T14:11:23.819Z,35.05
2022-07-29T14:14:26.201Z,34.93
2022-07-29T14:17:29.687Z,34.64
2022-07-29T14:20:32.655Z,34.44
2022-07-29T14:23:36.151Z,34.28
2022-07-29T14:26:38.819Z,34.34
2022-07-29T14:29:41.550Z,34.30
2022-07-29T14:32:43.947Z,34.49
2022-07-29T14:35:46.588Z,34.72
2022-07-29T14:38:48.983Z,34.93
2022-07-29T14:41:52.119Z,35.11
2022-07-29T14:44:54.908Z,34.80
2022-07-29T14:47:57.646Z,35.09
2022-07-29T14:51:04.555Z,35.26
2022-07-29T14:54:07.626Z,35.22
2022-07-29T14:57:09.902Z,35.02
2022-07-29T15:00:13.576Z,34.96
2022-07-29T15:03:24.224Z,34.87
2022-07-29T15:06:27.459Z,34.83
2022-07-29T15:09:29.828Z,34.61
2022-07-29T15:12:32.798Z,34.70
2022-07-29T15:15:35.145Z,34.49
2022-07-29T15:18:39.271Z,34.31
2022-07-29T15:21:48.872Z,34.30
2022-07-29T15:24:51.725Z,34.37
2022-07-29T15:27:56.677Z,34.30
2022-07-29T15:31:03.288Z,34.25
2022-07-29T15:34:06.529Z,34.22
2022-07-29T15:37:09.248Z,34.07
2022-07-29T15:40:11.802Z,34.11
2022-07-29T15:43:14.448Z,34.02
2022-07-29T15:46:36.442Z,33.84
2022-07-29T15:49:48.336Z,33.71
2022-07-29T15:52:51.869Z,33.75
2022-07-29T15:55:54.397Z,33.73
2022-07-29T15:58:56.831Z,33.61
2022-07-29T16:02:00.593Z,33.55
2022-07-29T16:05:03.191Z,33.53
2022-07-29T16:08:05.683Z,33.49
2022-07-29T16:11:08.284Z,33.41
2022-07-29T16:14:11.723Z,33.34
2022-07-29T16:17:15.213Z,33.27
2022-07-29T16:20:17.695Z,33.17
2022-07-29T16:23:20.334Z,33.24
2022-07-29T16:26:22.691Z,33.16
2022-07-29T16:29:25.556Z,33.05
2022-07-29T16:32:27.800Z,33.11
2022-07-29T16:35:39.744Z,33.06
2022-07-29T16:38:47.305Z,33.03
2022-07-29T16:41:50.164Z,32.81
2022-07-29T16:44:52.495Z,32.75
2022-07-29T16:48:00.238Z,32.68
2022-07-29T16:51:03.368Z,32.74
2022-07-29T16:54:06.011Z,32.76
2022-07-29T16:57:08.408Z,32.69
2022-07-29T17:00:11.596Z,32.48
2022-07-29T17:03:13.897Z,32.46
2022-07-29T17:06:16.445Z,32.17
2022-07-29T17:09:18.794Z,32.08
2022-07-29T17:12:21.473Z,31.91
2022-07-29T17:15:23.830Z,31.75
2022-07-29T17:18:26.780Z,31.50
2022-07-29T17:21:29.211Z,31.44
2022-07-29T17:24:31.769Z,31.26
2022-07-29T17:27:34.649Z,30.97
2022-07-29T17:30:37.267Z,30.98
2022-07-29T17:33:43.568Z,30.86
2022-07-29T17:36:46.259Z,30.74
2022-07-29T17:39:48.874Z,30.64
2022-07-29T17:42:51.451Z,30.60
2022-07-29T17:45:56.866Z,30.61
2022-07-29T17:49:02.261Z,30.41
2022-07-29T17:52:04.837Z,30.33
2022-07-29T17:55:07.821Z,30.21
2022-07-29T17:58:10.433Z,30.05
2022-07-29T18:01:13.585Z,29.82
2022-07-29T18:04:20.158Z,29.62
2022-07-29T18:07:22.528Z,29.43
2022-07-29T18:10:25.493Z,29.29
2022-07-29T18:13:27.919Z,29.09
2022-07-29T18:16:30.610Z,28.95
2022-07-29T18:19:33.054Z,28.84
2022-07-29T18:22:35.648Z,28.68
2022-07-29T18:25:39.025Z,28.54
2022-07-29T18:28:41.669Z,28.43
2022-07-29T18:31:44.024Z,28.33
2022-07-29T18:34:46.889Z,28.23
2022-07-29T18:38:00.871Z,28.13
2022-07-29T18:41:05.531Z,28.05
2022-07-29T18:44:09.639Z,27.94
2022-07-29T18:47:12.794Z,28.15
2022-07-29T18:50:16.604Z,28.57
2022-07-29T18:53:19.438Z,28.67
2022-07-29T18:56:21.734Z,28.71
2022-07-29T18:59:24.396Z,28.66
2022-07-29T19:02:27.922Z,28.70
2022-07-29T19:05:30.690Z,28.59
2022-07-29T19:08:33.377Z,28.58
2022-07-29T19:11:36.837Z,28.54
2022-07-29T19:14:39.461Z,28.43
2022-07-29T19:17:41.996Z,28.39
2022-07-29T19:20:44.520Z,28.35
2022-07-29T19:24:06.269Z,28.22
2022-07-29T19:27:09.761Z,28.22
2022-07-29T19:30:12.720Z,28.08
2022-07-29T19:33:17.537Z,27.94
2022-07-29T19:36:20.622Z,27.83
2022-07-29T19:39:35.030Z,27.69
2022-07-29T19:42:38.273Z,27.61
2022-07-29T19:45:40.899Z,27.52
2022-07-29T19:48:43.733Z,27.37
2022-07-29T19:51:46.012Z,27.27
2022-07-29T19:54:48.635Z,27.23
2022-07-29T19:57:52.652Z,27.11
2022-07-29T20:00:55.416Z,27.02
2022-07-29T20:03:58.209Z,26.93
2022-07-29T20:07:01.876Z,26.82
2022-07-29T20:10:08.445Z,26.76
2022-07-29T20:13:10.919Z,26.63
2022-07-29T20:16:13.575Z,26.53
2022-07-29T20:19:16.581Z,26.47
2022-07-29T20:22:21.191Z,26.37
2022-07-29T20:25:23.788Z,26.32
2022-07-29T20:28:26.438Z,26.26
2022-07-29T20:31:30.521Z,26.18
2022-07-29T20:34:33.304Z,26.10
2022-07-29T20:37:52.175Z,26.03
2022-07-29T20:40:58.867Z,26.02
2022-07-29T20:44:01.538Z,25.97
2022-07-29T20:47:04.196Z,25.91
2022-07-29T20:50:06.743Z,25.90
2022-07-29T20:53:09.738Z,25.96
2022-07-29T20:56:12.583Z,25.91
2022-07-29T20:59:15.239Z,25.80
2022-07-29T21:02:17.586Z,25.74
2022-07-29T21:05:20.173Z,25.65
2022-07-29T21:08:22.546Z,25.55
2022-07-29T21:11:44.670Z,25.51
2022-07-29T21:14:51.730Z,25.36
2022-07-29T21:18:00.674Z,25.29
2022-07-29T21:21:04.150Z,25.18
2022-07-29T21:24:07.496Z,25.09
2022-07-29T21:27:33.151Z,25.03
2022-07-29T21:30:36.555Z,24.91
2022-07-29T21:33:40.427Z,24.79
2022-07-29T21:36:48.339Z,24.66
2022-07-29T21:39:50.992Z,24.61
2022-07-29T21:42:53.610Z,24.51
2022-07-29T21:45:56.700Z,24.39
2022-07-29T21:48:59.451Z,24.31
2022-07-29T21:52:01.824Z,24.28
2022-07-29T21:55:04.588Z,24.23
2022-07-29T21:58:07.563Z,24.18
2022-07-29T22:01:10.185Z,24.14
2022-07-29T22:04:12.932Z,24.11
2022-07-29T22:07:15.263Z,24.12
2022-07-29T22:10:17.816Z,24.09
2022-07-29T22:13:20.076Z,24.04
2022-07-29T22:16:22.707Z,23.95
2022-07-29T22:19:27.357Z,23.96
2022-07-29T22:22:30.308Z,23.86
2022-07-29T22:25:32.676Z,23.73
2022-07-29T22:28:35.266Z,23.67
2022-07-29T22:31:37.550Z,23.59
2022-07-29T22:34:40.107Z,23.52
2022-07-29T22:37:42.550Z,23.43
2022-07-29T22:40:45.310Z,23.39
2022-07-29T22:43:47.631Z,23.32
2022-07-29T22:46:50.182Z,23.28
2022-07-29T22:49:52.583Z,23.22
2022-07-29T22:52:55.184Z,23.21
2022-07-29T22:55:57.577Z,23.11
2022-07-29T22:59:00.165Z,23.09
2022-07-29T23:02:02.459Z,23.02
2022-07-29T23:05:05.141Z,23.08
2022-07-29T23:08:09.276Z,23.03
2022-07-29T23:11:11.910Z,22.94
2022-07-29T23:14:14.224Z,22.88
2022-07-29T23:17:17.114Z,22.82
2022-07-29T23:20:21.715Z,22.76
2022-07-29T23:23:24.413Z,22.77
2022-07-29T23:26:26.785Z,22.68
2022-07-29T23:29:30.993Z,22.69
2022-07-29T23:32:36.159Z,22.64
2022-07-29T23:35:38.704Z,22.58
2022-07-29T23:38:41.199Z,22.58
2022-07-29T23:41:43.761Z,22.51
2022-07-29T23:44:46.087Z,22.43
2022-07-29T23:47:48.663Z,22.44
2022-07-29T23:50:50.947Z,22.38
2022-07-29T23:53:54.413Z,22.31
2022-07-29T23:56:57.922Z,22.26
